This is the latest recevied weather packets stored in our database for station/object KC0RPY. If no packets are shown the sender has not sent any weather packets the latest 1 day(s).
| Time | Temp. | Humidity | Pressure | Rain* | Wind** | Luminosity | Snow |
|---|---|---|---|---|---|---|---|
| 1777990606 | 8.33° C | 94% | 1012.5 hPa | 0 mm | 0.45 m/s, 100° | 150 W/m² | - |
| 1777990303 | 8.33° C | 94% | 1012.5 hPa | 0 mm | 0.45 m/s, 92° | 90 W/m² | - |
| 1777989999 | 8.33° C | 94% | 1013.2 hPa | 0 mm | 0.45 m/s, 105° | 29 W/m² | - |
| 1777989696 | 8.33° C | 93% | 1013.2 hPa | 0 mm | 0.45 m/s, 111° | 34 W/m² | - |
| 1777989392 | 8.33° C | 92% | 1012.8 hPa | 0 mm | 0.45 m/s, 108° | 35 W/m² | - |
| 1777989089 | 8.33° C | 93% | 1012.5 hPa | 0 mm | 0.89 m/s, 87° | 46 W/m² | - |
| 1777988785 | 8.33° C | 93% | 1012.5 hPa | 0 mm | 0.45 m/s, 97° | 32 W/m² | - |
| 1777988483 | 8.33° C | 94% | 1012.5 hPa | 0 mm | 0.89 m/s, 113° | 21 W/m² | - |
| 1777988179 | 8.33° C | 93% | 1013.2 hPa | 0 mm | 0.89 m/s, 106° | 7 W/m² | - |
| 1777987875 | 8.89° C | 92% | 1012.8 hPa | 0 mm | 0.89 m/s, 121° | 10 W/m² | - |
| 1777987572 | 8.89° C | 91% | 1012.2 hPa | 0 mm | 0.45 m/s, 119° | 55 W/m² | - |
| 1777987269 | 8.89° C | 90% | 1012.8 hPa | 0 mm | 0.89 m/s, 94° | 60 W/m² | - |
| 1777986966 | 8.89° C | 89% | 1013.2 hPa | 0 mm | 1.34 m/s, 186° | 10 W/m² | - |
| 1777986664 | 8.89° C | 87% | 1012.2 hPa | 0 mm | 0 m/s | 19 W/m² | - |
| 1777986361 | 8.89° C | 85% | 1012.5 hPa | 0 mm | 0.89 m/s, 68° | 7 W/m² | - |
| 1777986060 | 9.44° C | 82% | 1011.8 hPa | 0 mm | 0.45 m/s, 96° | 9 W/m² | - |
| 1777985756 | 9.44° C | 81% | 1012.2 hPa | 0 mm | 0.45 m/s, 95° | 6 W/m² | - |
| 1777985453 | 9.44° C | 80% | 1012.2 hPa | 0 mm | 1.34 m/s, 59° | 4 W/m² | - |
| 1777985150 | 9.44° C | 79% | 1010.7 hPa | 0 mm | 0.45 m/s, 71° | 12 W/m² | - |
| 1777984846 | 9.44° C | 80% | 1010.4 hPa | 0 mm | 0.45 m/s, 122° | 18 W/m² | - |
| 1777984542 | 9.44° C | 80% | 1010.4 hPa | 0 mm | 0.45 m/s, 92° | 21 W/m² | - |
| 1777984239 | 9.44° C | 80% | 1010.4 hPa | 0 mm | 0.89 m/s, 115° | 18 W/m² | - |
| 1777983936 | 9.44° C | 81% | 1010 hPa | 0 mm | 0.89 m/s, 89° | 44 W/m² | - |
| 1777983632 | 9.44° C | 83% | 1010 hPa | 0 mm | 0.89 m/s, 76° | 53 W/m² | - |
| 1777983329 | 8.89° C | 83% | 1010.4 hPa | 0 mm | 0.89 m/s, 84° | 33 W/m² | - |
* Rain latest hour (hover to see other rain measurements)
** Current wind speed in m/s (hover to see current wind gust speed)